Unity Village, Missouri
Current Conditions -  °F | °C
As of 4:54 AM on Sunday 23 Nov 2014 (Local Time) from KMKC Reporting Station
Overcast Overcast  
Wind Chill: 54°   Ceiling: 1600
Heat Index: 54°   Visibility: 10mi
Dew Point: 51°   Wind: 5mph
Humidity: 90%   Direction: 160°SSE
Pressure: 29.56"   Gusts: NA
Location:  38.9847°N, 94.3634°W
Report Text: KMKC 231054Z 16004KT 10SM SCT011 OVC016 12/11 A2956 RMK AO2 SLP009 T01220106
Loading
Personal Weather Stations






























Interactive Weather Map New forecast layout! Learn more

10-Day Weather Forecast

Advertisements
Track Severe Weather on mobile